sensor_id;sensor_type;location;lat;lon;timestamp;pressure;altitude;pressure_sealevel;temperature;humidity
60654;BME280;46476;53.614;10.048;2022-09-09T00:04:38;100545.03;;;18.38;67.15
60654;BME280;46476;53.614;10.048;2022-09-09T00:07:16;100537.84;;;18.43;67.21
60654;BME280;46476;53.614;10.048;2022-09-09T00:13:42;100545.25;;;18.56;67.07
60654;BME280;46476;53.614;10.048;2022-09-09T00:17:02;100535.75;;;18.59;66.85
60654;BME280;46476;53.614;10.048;2022-09-09T00:25:40;100544.63;;;18.68;66.94
60654;BME280;46476;53.614;10.048;2022-09-09T00:32:18;100541.91;;;18.61;67.01
60654;BME280;46476;53.614;10.048;2022-09-09T00:35:22;100548.00;;;18.56;67.67
60654;BME280;46476;53.614;10.048;2022-09-09T00:38:37;100545.47;;;18.41;67.95
60654;BME280;46476;53.614;10.048;2022-09-09T00:51:24;100538.50;;;18.39;68.25
60654;BME280;46476;53.614;10.048;2022-09-09T00:58:21;100550.06;;;18.34;68.72
60654;BME280;46476;53.614;10.048;2022-09-09T01:01:18;100547.34;;;18.34;68.54
60654;BME280;46476;53.614;10.048;2022-09-09T01:04:10;100545.69;;;18.40;68.39
60654;BME280;46476;53.614;10.048;2022-09-09T01:11:10;100543.97;;;18.39;68.30
60654;BME280;46476;53.614;10.048;2022-09-09T01:26:45;100534.28;;;18.36;68.32
60654;BME280;46476;53.614;10.048;2022-09-09T01:29:52;100534.06;;;18.38;68.34
60654;BME280;46476;53.614;10.048;2022-09-09T01:33:07;100534.50;;;18.35;68.33
60654;BME280;46476;53.614;10.048;2022-09-09T01:35:49;100540.59;;;18.37;68.20
60654;BME280;46476;53.614;10.048;2022-09-09T01:38:19;100537.03;;;18.36;68.14
60654;BME280;46476;53.614;10.048;2022-09-09T01:40:45;100538.06;;;18.28;68.15
60654;BME280;46476;53.614;10.048;2022-09-09T01:43:13;100534.06;;;18.24;68.49
60654;BME280;46476;53.614;10.048;2022-09-09T01:45:40;100544.16;;;18.24;68.23
60654;BME280;46476;53.614;10.048;2022-09-09T01:48:08;100539.53;;;18.24;68.39
60654;BME280;46476;53.614;10.048;2022-09-09T01:50:50;100536.13;;;18.22;68.34
60654;BME280;46476;53.614;10.048;2022-09-09T01:53:42;100531.09;;;18.26;68.11
60654;BME280;46476;53.614;10.048;2022-09-09T01:59:53;100521.22;;;18.45;67.73
60654;BME280;46476;53.614;10.048;2022-09-09T02:05:37;100511.09;;;18.39;67.47
60654;BME280;46476;53.614;10.048;2022-09-09T02:08:23;100521.63;;;18.35;67.57
60654;BME280;46476;53.614;10.048;2022-09-09T02:11:43;100520.78;;;18.35;67.64
60654;BME280;46476;53.614;10.048;2022-09-09T02:14:55;100524.34;;;18.28;67.75
60654;BME280;46476;53.614;10.048;2022-09-09T02:17:27;100530.88;;;18.27;67.58
60654;BME280;46476;53.614;10.048;2022-09-09T02:20:08;100529.63;;;18.23;67.64
60654;BME280;46476;53.614;10.048;2022-09-09T02:22:37;100525.38;;;18.14;68.03
60654;BME280;46476;53.614;10.048;2022-09-09T02:25:17;100532.75;;;18.13;67.75
60654;BME280;46476;53.614;10.048;2022-09-09T02:27:48;100539.09;;;18.14;67.91
60654;BME280;46476;53.614;10.048;2022-09-09T02:30:16;100531.09;;;18.19;67.90
60654;BME280;46476;53.614;10.048;2022-09-09T02:32:46;100523.47;;;18.21;67.75
60654;BME280;46476;53.614;10.048;2022-09-09T02:35:25;100521.16;;;18.18;67.62
60654;BME280;46476;53.614;10.048;2022-09-09T02:37:58;100519.47;;;18.17;67.70
60654;BME280;46476;53.614;10.048;2022-09-09T02:40:24;100524.53;;;18.13;67.63
60654;BME280;46476;53.614;10.048;2022-09-09T02:42:50;100512.53;;;18.21;67.43
60654;BME280;46476;53.614;10.048;2022-09-09T02:45:19;100527.72;;;18.24;67.34
60654;BME280;46476;53.614;10.048;2022-09-09T02:50:23;100523.09;;;18.18;67.15
60654;BME280;46476;53.614;10.048;2022-09-09T02:53:08;100533.19;;;18.17;67.39
60654;BME280;46476;53.614;10.048;2022-09-09T02:55:48;100519.47;;;18.10;67.75
60654;BME280;46476;53.614;10.048;2022-09-09T02:58:18;100520.94;;;18.06;67.63
60654;BME280;46476;53.614;10.048;2022-09-09T03:00:46;100520.53;;;18.16;67.50
60654;BME280;46476;53.614;10.048;2022-09-09T03:03:12;100519.25;;;18.19;67.56
60654;BME280;46476;53.614;10.048;2022-09-09T03:05:37;100520.97;;;18.20;67.59
60654;BME280;46476;53.614;10.048;2022-09-09T03:08:04;100530.66;;;18.16;67.45
60654;BME280;46476;53.614;10.048;2022-09-09T03:10:30;100530.44;;;18.17;67.48
60654;BME280;46476;53.614;10.048;2022-09-09T03:12:56;100525.38;;;18.14;67.67
60654;BME280;46476;53.614;10.048;2022-09-09T03:15:21;100530.22;;;18.12;67.56
60654;BME280;46476;53.614;10.048;2022-09-09T03:17:46;100519.47;;;18.10;67.39
60654;BME280;46476;53.614;10.048;2022-09-09T03:20:12;100533.38;;;18.09;67.50
60654;BME280;46476;53.614;10.048;2022-09-09T03:22:38;100524.72;;;18.05;67.44
60654;BME280;46476;53.614;10.048;2022-09-09T03:25:03;100531.25;;;18.11;67.31
60654;BME280;46476;53.614;10.048;2022-09-09T03:27:29;100524.72;;;18.12;67.39
60654;BME280;46476;53.614;10.048;2022-09-09T03:29:54;100526.00;;;18.09;67.59
60654;BME280;46476;53.614;10.048;2022-09-09T03:32:20;100531.91;;;18.06;67.35
60654;BME280;46476;53.614;10.048;2022-09-09T03:34:48;100526.00;;;18.09;67.27
60654;BME280;46476;53.614;10.048;2022-09-09T03:37:15;100523.03;;;18.11;67.13
60654;BME280;46476;53.614;10.048;2022-09-09T03:39:42;100521.78;;;18.13;67.22
60654;BME280;46476;53.614;10.048;2022-09-09T03:42:07;100523.09;;;18.18;67.09
60654;BME280;46476;53.614;10.048;2022-09-09T03:44:32;100525.38;;;18.14;66.72
60654;BME280;46476;53.614;10.048;2022-09-09T03:46:58;100516.94;;;18.09;67.06
60654;BME280;46476;53.614;10.048;2022-09-09T03:49:26;100532.09;;;18.05;66.98
60654;BME280;46476;53.614;10.048;2022-09-09T03:51:51;100529.56;;;18.03;67.17
60654;BME280;46476;53.614;10.048;2022-09-09T03:54:17;100531.47;;;18.03;67.10
60654;BME280;46476;53.614;10.048;2022-09-09T03:56:42;100529.53;;;17.96;67.36
60654;BME280;46476;53.614;10.048;2022-09-09T03:59:08;100527.84;;;17.95;67.15
60654;BME280;46476;53.614;10.048;2022-09-09T04:01:36;100533.06;;;17.90;67.43
60654;BME280;46476;53.614;10.048;2022-09-09T04:04:02;100532.69;;;17.93;67.41
60654;BME280;46476;53.614;10.048;2022-09-09T04:06:27;100533.06;;;17.90;67.38
60654;BME280;46476;53.614;10.048;2022-09-09T04:08:53;100535.38;;;17.87;67.35
60654;BME280;46476;53.614;10.048;2022-09-09T04:11:20;100532.84;;;17.85;67.20
60654;BME280;46476;53.614;10.048;2022-09-09T04:13:45;100541.50;;;17.89;67.35
60654;BME280;46476;53.614;10.048;2022-09-09T04:16:11;100536.88;;;17.89;67.27
60654;BME280;46476;53.614;10.048;2022-09-09T04:18:38;100549.31;;;17.92;67.03
60654;BME280;46476;53.614;10.048;2022-09-09T04:21:04;100545.72;;;17.91;67.21
60654;BME280;46476;53.614;10.048;2022-09-09T04:23:31;100549.13;;;17.93;67.07
60654;BME280;46476;53.614;10.048;2022-09-09T04:25:57;100547.81;;;17.89;66.92
60654;BME280;46476;53.614;10.048;2022-09-09T04:28:25;100542.72;;;17.79;67.18
60654;BME280;46476;53.614;10.048;2022-09-09T04:30:51;100550.34;;;17.84;67.01
60654;BME280;46476;53.614;10.048;2022-09-09T04:33:18;100557.09;;;17.88;66.77
60654;BME280;46476;53.614;10.048;2022-09-09T04:35:45;100554.78;;;17.85;66.45
60654;BME280;46476;53.614;10.048;2022-09-09T04:38:13;100552.84;;;17.79;66.88
60654;BME280;46476;53.614;10.048;2022-09-09T04:40:38;100550.94;;;17.79;66.86
60654;BME280;46476;53.614;10.048;2022-09-09T04:43:08;100553.69;;;17.86;66.70
60654;BME280;46476;53.614;10.048;2022-09-09T04:45:34;100555.63;;;17.92;66.79
60654;BME280;46476;53.614;10.048;2022-09-09T04:47:59;100552.50;;;17.95;66.54
60654;BME280;46476;53.614;10.048;2022-09-09T04:50:24;100555.47;;;18.01;66.80
60654;BME280;46476;53.614;10.048;2022-09-09T04:52:50;100566.41;;;18.01;66.52
60654;BME280;46476;53.614;10.048;2022-09-09T04:55:15;100557.81;;;18.04;66.54
60654;BME280;46476;53.614;10.048;2022-09-09T04:57:41;100568.56;;;18.05;66.46
60654;BME280;46476;53.614;10.048;2022-09-09T05:00:07;100566.88;;;18.11;66.37
60654;BME280;46476;53.614;10.048;2022-09-09T05:02:32;100568.41;;;18.20;65.97
60654;BME280;46476;53.614;10.048;2022-09-09T05:04:58;100569.88;;;18.23;65.90
60654;BME280;46476;53.614;10.048;2022-09-09T05:07:24;100565.66;;;18.20;65.89
60654;BME280;46476;53.614;10.048;2022-09-09T05:09:50;100569.84;;;18.16;65.99
60654;BME280;46476;53.614;10.048;2022-09-09T05:12:16;100569.63;;;18.11;65.94
60654;BME280;46476;53.614;10.048;2022-09-09T05:14:42;100569.00;;;18.09;66.26
60654;BME280;46476;53.614;10.048;2022-09-09T05:17:07;100570.91;;;18.15;65.83
60654;BME280;46476;53.614;10.048;2022-09-09T05:19:33;100574.06;;;18.12;65.98
60654;BME280;46476;53.614;10.048;2022-09-09T05:21:58;100570.69;;;18.10;65.70
60654;BME280;46476;53.614;10.048;2022-09-09T05:24:23;100569.22;;;18.07;66.01
60654;BME280;46476;53.614;10.048;2022-09-09T05:26:49;100573.38;;;18.03;66.08
60654;BME280;46476;53.614;10.048;2022-09-09T05:29:14;100564.13;;;18.04;66.08
60654;BME280;46476;53.614;10.048;2022-09-09T05:31:39;100575.53;;;18.08;66.03
60654;BME280;46476;53.614;10.048;2022-09-09T05:34:06;100566.50;;;18.14;65.90
60654;BME280;46476;53.614;10.048;2022-09-09T05:36:31;100569.63;;;18.11;65.92
60654;BME280;46476;53.614;10.048;2022-09-09T05:38:56;100577.22;;;18.09;65.96
60654;BME280;46476;53.614;10.048;2022-09-09T05:41:22;100576.56;;;18.07;66.10
60654;BME280;46476;53.614;10.048;2022-09-09T05:43:48;100587.13;;;18.10;66.01
60654;BME280;46476;53.614;10.048;2022-09-09T05:46:19;100576.78;;;18.12;66.09
60654;BME280;46476;53.614;10.048;2022-09-09T05:48:46;100582.50;;;18.17;65.88
60654;BME280;46476;53.614;10.048;2022-09-09T05:51:14;100590.72;;;18.17;65.90
60654;BME280;46476;53.614;10.048;2022-09-09T05:53:44;100596.00;;;18.19;65.84
60654;BME280;46476;53.614;10.048;2022-09-09T05:56:15;100597.91;;;18.18;66.05
60654;BME280;46476;53.614;10.048;2022-09-09T05:58:43;100599.16;;;18.22;65.93
60654;BME280;46476;53.614;10.048;2022-09-09T06:01:11;100593.06;;;18.20;66.02
60654;BME280;46476;53.614;10.048;2022-09-09T06:03:38;100605.69;;;18.21;66.41
60654;BME280;46476;53.614;10.048;2022-09-09T06:06:05;100598.97;;;18.24;66.10
60654;BME280;46476;53.614;10.048;2022-09-09T06:08:32;100598.16;;;18.30;66.11
60654;BME280;46476;53.614;10.048;2022-09-09T06:11:03;100600.06;;;18.29;66.37
60654;BME280;46476;53.614;10.048;2022-09-09T06:13:29;100612.69;;;18.30;66.20
60654;BME280;46476;53.614;10.048;2022-09-09T06:15:54;100606.81;;;18.34;66.20
60654;BME280;46476;53.614;10.048;2022-09-09T06:18:20;100619.25;;;18.36;66.20
60654;BME280;46476;53.614;10.048;2022-09-09T06:21:01;100623.69;;;18.37;66.28
60654;BME280;46476;53.614;10.048;2022-09-09T06:23:29;100626.81;;;18.27;66.81
60654;BME280;46476;53.614;10.048;2022-09-09T06:26:06;100623.66;;;18.30;66.34
60654;BME280;46476;53.614;10.048;2022-09-09T06:28:35;100625.13;;;18.33;66.55
60654;BME280;46476;53.614;10.048;2022-09-09T06:31:06;100618.44;;;18.42;66.42
60654;BME280;46476;53.614;10.048;2022-09-09T06:33:37;100623.50;;;18.45;66.13
60654;BME280;46476;53.614;10.048;2022-09-09T06:36:07;100624.38;;;18.53;66.21
60654;BME280;46476;53.614;10.048;2022-09-09T06:38:35;100615.94;;;18.54;65.89
60654;BME280;46476;53.614;10.048;2022-09-09T06:41:00;100623.31;;;18.60;65.91
60654;BME280;46476;53.614;10.048;2022-09-09T06:43:27;100624.81;;;18.63;65.75
60654;BME280;46476;53.614;10.048;2022-09-09T06:45:54;100624.38;;;18.73;65.85
60654;BME280;46476;53.614;10.048;2022-09-09T06:48:20;100620.59;;;18.67;65.99
60654;BME280;46476;53.614;10.048;2022-09-09T06:50:45;100626.47;;;18.71;65.89
60654;BME280;46476;53.614;10.048;2022-09-09T06:53:11;100628.63;;;18.75;65.81
60654;BME280;46476;53.614;10.048;2022-09-09T06:55:36;100622.06;;;18.76;65.57
60654;BME280;46476;53.614;10.048;2022-09-09T06:58:01;100631.78;;;18.79;65.72
60654;BME280;46476;53.614;10.048;2022-09-09T07:00:27;100622.28;;;18.75;65.80
60654;BME280;46476;53.614;10.048;2022-09-09T07:02:52;100624.59;;;18.71;65.94
60654;BME280;46476;53.614;10.048;2022-09-09T07:05:18;100629.03;;;18.72;65.95
60654;BME280;46476;53.614;10.048;2022-09-09T07:07:43;100624.16;;;18.74;65.92
60654;BME280;46476;53.614;10.048;2022-09-09T07:10:08;100627.34;;;18.78;66.06
60654;BME280;46476;53.614;10.048;2022-09-09T07:12:34;100630.53;;;18.88;65.85
60654;BME280;46476;53.614;10.048;2022-09-09T07:14:59;100628.69;;;18.95;66.05
60654;BME280;46476;53.614;10.048;2022-09-09T07:17:25;100630.16;;;19.05;66.10
60654;BME280;46476;53.614;10.048;2022-09-09T07:19:50;100629.09;;;19.12;66.07
60654;BME280;46476;53.614;10.048;2022-09-09T07:22:15;100629.09;;;19.19;66.08
60654;BME280;46476;53.614;10.048;2022-09-09T07:24:41;100631.63;;;19.27;66.13
60654;BME280;46476;53.614;10.048;2022-09-09T07:27:06;100644.50;;;19.34;66.25
60654;BME280;46476;53.614;10.048;2022-09-09T07:29:31;100633.72;;;19.39;65.68
60654;BME280;46476;53.614;10.048;2022-09-09T07:31:57;100640.91;;;19.33;65.47
60654;BME280;46476;53.614;10.048;2022-09-09T07:34:23;100643.84;;;19.32;65.36
60654;BME280;46476;53.614;10.048;2022-09-09T07:36:48;100635.41;;;19.26;65.53
60654;BME280;46476;53.614;10.048;2022-09-09T07:39:14;100641.75;;;19.27;65.53
60654;BME280;46476;53.614;10.048;2022-09-09T07:41:45;100638.81;;;19.28;65.51
60654;BME280;46476;53.614;10.048;2022-09-09T07:44:15;100640.06;;;19.33;65.62
60654;BME280;46476;53.614;10.048;2022-09-09T07:46:41;100643.00;;;19.38;65.55
60654;BME280;46476;53.614;10.048;2022-09-09T07:49:08;100652.31;;;19.37;65.45
60654;BME280;46476;53.614;10.048;2022-09-09T07:51:39;100652.94;;;19.39;65.28
60654;BME280;46476;53.614;10.048;2022-09-09T07:54:07;100645.75;;;19.38;65.70
60654;BME280;46476;53.614;10.048;2022-09-09T07:56:34;100651.47;;;19.43;65.57
60654;BME280;46476;53.614;10.048;2022-09-09T07:59:00;100657.34;;;19.53;65.24
60654;BME280;46476;53.614;10.048;2022-09-09T08:01:29;100660.31;;;19.58;65.60
60654;BME280;46476;53.614;10.048;2022-09-09T08:04:00;100664.09;;;19.57;65.51
60654;BME280;46476;53.614;10.048;2022-09-09T08:06:32;100668.34;;;19.60;65.46
60654;BME280;46476;53.614;10.048;2022-09-09T08:08:58;100658.41;;;19.59;65.59
60654;BME280;46476;53.614;10.048;2022-09-09T08:11:25;100662.00;;;19.59;65.59
60654;BME280;46476;53.614;10.048;2022-09-09T08:13:51;100664.31;;;19.62;65.67
60654;BME280;46476;53.614;10.048;2022-09-09T08:16:21;100664.09;;;19.64;65.80
60654;BME280;46476;53.614;10.048;2022-09-09T08:18:51;100671.50;;;19.57;65.51
60654;BME280;46476;53.614;10.048;2022-09-09T08:21:19;100672.56;;;19.56;65.75
60654;BME280;46476;53.614;10.048;2022-09-09T08:23:46;100675.53;;;19.54;65.53
60654;BME280;46476;53.614;10.048;2022-09-09T08:26:20;100671.72;;;19.62;65.59
60654;BME280;46476;53.614;10.048;2022-09-09T08:28:53;100676.16;;;19.70;65.58
60654;BME280;46476;53.614;10.048;2022-09-09T08:31:26;100670.63;;;19.76;65.23
60654;BME280;46476;53.614;10.048;2022-09-09T08:33:53;100676.13;;;19.83;65.20
60654;BME280;46476;53.614;10.048;2022-09-09T08:36:21;100677.81;;;19.91;65.26
60654;BME280;46476;53.614;10.048;2022-09-09T08:38:49;100670.00;;;19.94;64.85
60654;BME280;46476;53.614;10.048;2022-09-09T08:43:43;100673.59;;;19.88;64.98
60654;BME280;46476;53.614;10.048;2022-09-09T08:46:17;100684.81;;;19.87;65.22
60654;BME280;46476;53.614;10.048;2022-09-09T08:48:56;100684.38;;;19.83;65.18
60654;BME280;46476;53.614;10.048;2022-09-09T08:51:26;100680.16;;;19.67;64.91
60654;BME280;46476;53.614;10.048;2022-09-09T08:53:54;100682.72;;;19.62;65.08
60654;BME280;46476;53.614;10.048;2022-09-09T08:56:24;100678.47;;;19.59;65.00
60654;BME280;46476;53.614;10.048;2022-09-09T08:58:53;100684.19;;;19.58;65.34
60654;BME280;46476;53.614;10.048;2022-09-09T09:02:02;100682.28;;;19.58;65.08
60654;BME280;46476;53.614;10.048;2022-09-09T09:07:37;100688.59;;;19.59;65.13
60654;BME280;46476;53.614;10.048;2022-09-09T09:12:43;100688.22;;;19.55;65.39
60654;BME280;46476;53.614;10.048;2022-09-09T09:15:18;100698.34;;;19.55;65.31
60654;BME280;46476;53.614;10.048;2022-09-09T09:17:44;100688.00;;;19.57;65.41
60654;BME280;46476;53.614;10.048;2022-09-09T09:20:13;100701.06;;;19.61;65.68
60654;BME280;46476;53.614;10.048;2022-09-09T09:22:47;100692.44;;;19.65;65.25
60654;BME280;46476;53.614;10.048;2022-09-09T09:25:22;100690.72;;;19.63;65.60
60654;BME280;46476;53.614;10.048;2022-09-09T09:28:03;100693.47;;;19.63;65.62
60654;BME280;46476;53.614;10.048;2022-09-09T09:30:55;100689.03;;;19.62;65.18
60654;BME280;46476;53.614;10.048;2022-09-09T09:36:07;100693.03;;;19.67;65.59
60654;BME280;46476;53.614;10.048;2022-09-09T09:38:34;100695.56;;;19.61;65.65
60654;BME280;46476;53.614;10.048;2022-09-09T09:40:59;100694.75;;;19.61;65.38
60654;BME280;46476;53.614;10.048;2022-09-09T09:43:36;100697.91;;;19.65;65.05
60654;BME280;46476;53.614;10.048;2022-09-09T09:46:05;100691.56;;;19.64;65.31
60654;BME280;46476;53.614;10.048;2022-09-09T09:48:42;100690.50;;;19.65;65.20
60654;BME280;46476;53.614;10.048;2022-09-09T09:51:13;100695.78;;;19.67;65.23
60654;BME280;46476;53.614;10.048;2022-09-09T09:53:42;100689.66;;;19.71;65.23
60654;BME280;46476;53.614;10.048;2022-09-09T09:56:09;100691.97;;;19.81;65.02
60654;BME280;46476;53.614;10.048;2022-09-09T10:01:23;100691.13;;;19.81;64.26
60654;BME280;46476;53.614;10.048;2022-09-09T10:04:00;100693.69;;;19.82;64.14
60654;BME280;46476;53.614;10.048;2022-09-09T10:06:32;100696.19;;;19.77;63.60
60654;BME280;46476;53.614;10.048;2022-09-09T10:08:58;100699.59;;;19.79;64.16
60654;BME280;46476;53.614;10.048;2022-09-09T10:11:48;100691.78;;;19.89;63.95
60654;BME280;46476;53.614;10.048;2022-09-09T10:17:04;100694.31;;;19.91;63.80
60654;BME280;46476;53.614;10.048;2022-09-09T10:19:34;100694.47;;;20.03;63.30
60654;BME280;46476;53.614;10.048;2022-09-09T10:24:49;100695.34;;;20.03;63.04
60654;BME280;46476;53.614;10.048;2022-09-09T10:27:26;100697.19;;;20.09;63.41
60654;BME280;46476;53.614;10.048;2022-09-09T10:35:35;100686.84;;;20.11;62.04
60654;BME280;46476;53.614;10.048;2022-09-09T10:38:24;100684.75;;;20.14;62.06
60654;BME280;46476;53.614;10.048;2022-09-09T10:46:25;100687.47;;;20.20;62.02
60654;BME280;46476;53.614;10.048;2022-09-09T10:52:09;100688.91;;;20.30;62.40
60654;BME280;46476;53.614;10.048;2022-09-09T10:54:53;100682.13;;;20.32;61.93
60654;BME280;46476;53.614;10.048;2022-09-09T10:57:29;100687.84;;;20.31;61.45
60654;BME280;46476;53.614;10.048;2022-09-09T11:00:00;100681.25;;;20.32;61.43
60654;BME280;46476;53.614;10.048;2022-09-09T11:02:30;100674.50;;;20.27;61.33
60654;BME280;46476;53.614;10.048;2022-09-09T11:05:08;100677.06;;;20.29;61.43
60654;BME280;46476;53.614;10.048;2022-09-09T11:07:40;100685.50;;;20.27;60.79
60654;BME280;46476;53.614;10.048;2022-09-09T11:12:48;100677.50;;;20.26;61.30
60654;BME280;46476;53.614;10.048;2022-09-09T11:15:20;100679.81;;;20.29;61.19
60654;BME280;46476;53.614;10.048;2022-09-09T11:18:01;100676.66;;;20.25;60.25
60654;BME280;46476;53.614;10.048;2022-09-09T11:20:28;100674.97;;;20.24;60.51
60654;BME280;46476;53.614;10.048;2022-09-09T11:23:03;100664.97;;;20.30;60.64
60654;BME280;46476;53.614;10.048;2022-09-09T11:25:40;100675.94;;;20.37;61.34
60654;BME280;46476;53.614;10.048;2022-09-09T11:28:39;100670.25;;;20.32;60.62
60654;BME280;46476;53.614;10.048;2022-09-09T11:34:30;100685.28;;;20.36;60.68
60654;BME280;46476;53.614;10.048;2022-09-09T11:42:47;100680.16;;;20.39;61.17
60654;BME280;46476;53.614;10.048;2022-09-09T11:45:26;100678.06;;;20.41;60.99
60654;BME280;46476;53.614;10.048;2022-09-09T11:48:01;100685.66;;;20.46;61.52
60654;BME280;46476;53.614;10.048;2022-09-09T11:50:33;100685.84;;;20.44;61.12
60654;BME280;46476;53.614;10.048;2022-09-09T11:53:17;100688.41;;;20.46;61.37
60654;BME280;46476;53.614;10.048;2022-09-09T11:55:45;100684.84;;;20.39;61.57
60654;BME280;46476;53.614;10.048;2022-09-09T12:00:39;100693.69;;;20.48;61.31
60654;BME280;46476;53.614;10.048;2022-09-09T12:03:36;100686.91;;;20.50;61.15
60654;BME280;46476;53.614;10.048;2022-09-09T12:06:11;100695.34;;;20.55;61.24
60654;BME280;46476;53.614;10.048;2022-09-09T12:08:41;100687.09;;;20.55;61.32
60654;BME280;46476;53.614;10.048;2022-09-09T12:11:07;100681.59;;;20.55;61.15
60654;BME280;46476;53.614;10.048;2022-09-09T12:13:32;100680.31;;;20.58;61.37
60654;BME280;46476;53.614;10.048;2022-09-09T12:16:00;100679.44;;;20.64;60.99
60654;BME280;46476;53.614;10.048;2022-09-09T12:18:35;100681.16;;;20.58;60.79
60654;BME280;46476;53.614;10.048;2022-09-09T12:21:18;100682.44;;;20.56;60.94
60654;BME280;46476;53.614;10.048;2022-09-09T12:24:09;100684.56;;;20.54;61.43
60654;BME280;46476;53.614;10.048;2022-09-09T12:27:03;100682.00;;;20.52;61.85
60654;BME280;46476;53.614;10.048;2022-09-09T12:29:47;100679.25;;;20.52;61.61
60654;BME280;46476;53.614;10.048;2022-09-09T12:32:22;100686.03;;;20.56;61.41
60654;BME280;46476;53.614;10.048;2022-09-09T12:34:55;100689.63;;;20.57;61.31
60654;BME280;46476;53.614;10.048;2022-09-09T12:40:00;100690.06;;;20.54;62.35
60654;BME280;46476;53.614;10.048;2022-09-09T12:42:27;100694.72;;;20.53;62.51
60654;BME280;46476;53.614;10.048;2022-09-09T12:44:55;100683.53;;;20.48;62.75
60654;BME280;46476;53.614;10.048;2022-09-09T12:47:43;100680.72;;;20.55;63.24
60654;BME280;46476;53.614;10.048;2022-09-09T12:50:25;100678.63;;;20.57;63.28
60654;BME280;46476;53.614;10.048;2022-09-09T12:52:53;100682.00;;;20.59;63.54
60654;BME280;46476;53.614;10.048;2022-09-09T12:55:21;100669.28;;;20.65;63.75
60654;BME280;46476;53.614;10.048;2022-09-09T12:57:50;100672.22;;;20.70;63.75
60654;BME280;46476;53.614;10.048;2022-09-09T13:00:20;100673.69;;;20.72;63.87
60654;BME280;46476;53.614;10.048;2022-09-09T13:02:58;100675.16;;;20.75;63.85
60654;BME280;46476;53.614;10.048;2022-09-09T13:05:26;100673.47;;;20.74;63.78
60654;BME280;46476;53.614;10.048;2022-09-09T13:08:03;100682.56;;;20.74;63.35
60654;BME280;46476;53.614;10.048;2022-09-09T13:10:31;100683.66;;;20.73;63.47
60654;BME280;46476;53.614;10.048;2022-09-09T13:12:58;100678.34;;;20.72;63.50
60654;BME280;46476;53.614;10.048;2022-09-09T13:15:26;100676.69;;;20.71;63.66
60654;BME280;46476;53.614;10.048;2022-09-09T13:17:58;100672.66;;;20.67;62.91
60654;BME280;46476;53.614;10.048;2022-09-09T13:20:25;100680.72;;;20.61;63.06
60654;BME280;46476;53.614;10.048;2022-09-09T13:22:52;100686.28;;;20.48;62.80
60654;BME280;46476;53.614;10.048;2022-09-09T13:25:28;100687.31;;;20.54;63.21
60654;BME280;46476;53.614;10.048;2022-09-09T13:30:34;100698.50;;;20.52;63.10
60654;BME280;46476;53.614;10.048;2022-09-09T13:36:12;100706.78;;;20.52;62.89
60654;BME280;46476;53.614;10.048;2022-09-09T13:41:20;100721.34;;;20.59;63.35
60654;BME280;46476;53.614;10.048;2022-09-09T13:43:47;100734.66;;;20.63;63.12
60654;BME280;46476;53.614;10.048;2022-09-09T13:46:32;100744.19;;;20.60;62.82
60654;BME280;46476;53.614;10.048;2022-09-09T13:49:01;100746.53;;;20.63;63.12
60654;BME280;46476;53.614;10.048;2022-09-09T13:51:34;100754.78;;;20.63;63.48
60654;BME280;46476;53.614;10.048;2022-09-09T13:54:00;100747.75;;;20.67;63.76
60654;BME280;46476;53.614;10.048;2022-09-09T13:56:26;100747.75;;;20.67;63.75
60654;BME280;46476;53.614;10.048;2022-09-09T13:58:51;100738.50;;;20.61;63.61
60654;BME280;46476;53.614;10.048;2022-09-09T14:01:17;100731.50;;;20.66;64.00
60654;BME280;46476;53.614;10.048;2022-09-09T14:03:42;100738.25;;;20.63;64.17
60654;BME280;46476;53.614;10.048;2022-09-09T14:06:09;100730.66;;;20.58;64.36
60654;BME280;46476;53.614;10.048;2022-09-09T14:08:35;100724.34;;;20.51;64.41
60654;BME280;46476;53.614;10.048;2022-09-09T14:11:03;100718.25;;;20.42;64.40
60654;BME280;46476;53.614;10.048;2022-09-09T14:13:29;100721.41;;;20.39;64.65
60654;BME280;46476;53.614;10.048;2022-09-09T14:15:54;100718.66;;;20.39;64.51
60654;BME280;46476;53.614;10.048;2022-09-09T14:18:19;100721.66;;;20.38;64.88
60654;BME280;46476;53.614;10.048;2022-09-09T14:20:45;100710.44;;;20.33;65.38
60654;BME280;46476;53.614;10.048;2022-09-09T14:23:11;100714.69;;;20.28;65.54
60654;BME280;46476;53.614;10.048;2022-09-09T14:25:40;100717.03;;;20.25;65.83
60654;BME280;46476;53.614;10.048;2022-09-09T14:28:08;100715.56;;;20.22;65.85
60654;BME280;46476;53.614;10.048;2022-09-09T14:30:33;100711.56;;;20.18;66.39
60654;BME280;46476;53.614;10.048;2022-09-09T14:32:59;100714.31;;;20.18;66.43
60654;BME280;46476;53.614;10.048;2022-09-09T14:35:25;100710.50;;;20.19;66.67
60654;BME280;46476;53.614;10.048;2022-09-09T14:37:50;100710.94;;;20.16;66.80
60654;BME280;46476;53.614;10.048;2022-09-09T14:40:16;100708.63;;;20.13;67.16
60654;BME280;46476;53.614;10.048;2022-09-09T14:42:41;100716.63;;;20.15;67.17
60654;BME280;46476;53.614;10.048;2022-09-09T14:45:07;100704.81;;;20.14;67.28
60654;BME280;46476;53.614;10.048;2022-09-09T14:47:32;100707.13;;;20.17;67.02
60654;BME280;46476;53.614;10.048;2022-09-09T14:49:57;100701.84;;;20.16;67.25
60654;BME280;46476;53.614;10.048;2022-09-09T14:52:23;100698.69;;;20.12;66.92
60654;BME280;46476;53.614;10.048;2022-09-09T14:54:48;100700.38;;;20.13;67.24
60654;BME280;46476;53.614;10.048;2022-09-09T14:57:14;100698.69;;;20.12;66.77